Park Rapids, Park Rapids Municipal Konshok Field (KPKD)

NamePark Rapids Municipal Konshok Field
CityPark Rapids
CountryUnited States
ICAOKPKD
IATA
Altitude440 m
CoordinatesGoogle Map
Live Air TrafficLiveATC.net
METARKPKD 211153Z AUTO 06011KT 10SM OVC090 10/02 A2963 RMK AO2 SLP037 60000 70001 T01000017 10111 20100 56012
2019-10-21 11:53:00 Wind: Northeast (60°) 5.66 m/s - Visibility: 16093.4 m - Temperature: 10 °C - Dew point: 2 °C - Humidity: 57.9% - Pressure: 1003.39 hPa

Sorry, no flights used the airport in this database.